Weather History for Buena Vista, CO

Change the Weather History Date:

Tuesday, March 11, 2014

  Actual Average (KLXV) Record (KLXV)
Temperature  
Mean Temperature 33 °F -  
Max Temperature 44 °F 36 °F 55 °F (1989)
Min Temperature 21 °F 10 °F -3 °F (1979)
Degree Days  
Heating Degree Days 32 42  
Month to date heating degree days 475  
Since 1 July heating degree days 8185  
Cooling Degree Days 0 0  
Month to date cooling degree days 0  
Year to date cooling degree days 0  
Moisture  
Dew Point 12 °F    
Average Humidity 43    
Maximum Humidity 67    
Minimum Humidity 20    
Precipitation  
Precipitation 0.00 in 0.03 in 0.29 in (1993)
Month to date precipitation 0.31  
Year to date precipitation 1.63  
Sea Level Pressure  
Sea Level Pressure 29.96 in    
Wind  
Wind Speed 11 mph (NW)    
Max Wind Speed 28 mph    
Max Gust Speed 37 mph    
Visibility 10 miles    
Events Snow    
T = Trace of Precipitation, MM = Missing Value Source: NWS Daily Summary

Daily Weather History Graph

Daily Weather History Graph

Search for Another Location

Airport:

Trip Planner

Search our weather history database for the weather conditions in past years. The results will help you decide how hot, cold, wet, or windy it might be!

Date:

Astronomy

Mar. 11, 2014 Rise Set
Actual Time 7:21 AM MDT 7:07 PM MDT
Civil Twilight 6:55 AM MDT 7:34 PM MDT
Nautical Twilight 6:24 AM MDT 8:05 PM MDT
Astronomical Twilight 5:53 AM MDT 8:36 PM MDT
Moon 2:48 PM MDT (3/11) 4:15 AM MDT (3/11)
Length of Visible Light 12h 38m
Length of Day
11h 45m
Waxing Gibbous, 78% of the Moon is Illuminated
Mar 11
Waxing Gibbous
Mar 16
Full
Mar 23
Last Quarter
Mar 30
New
Apr 7
First Quarter

Hourly Weather History & Observations

Time (MDT) Temp. Windchill Dew Point Humidity Pressure Visibility Wind Dir Wind Speed Gust Speed Precip Events Conditions
12:15 AM 40.6 °F 37.5 °F 2.5 °F 20% 29.83 in 10.0 mi West 4.6 mph - N/A   Clear
12:35 AM 40.6 °F - 3.9 °F 22% 29.81 in 10.0 mi Calm Calm - N/A   Clear
12:55 AM 38.7 °F 34.3 °F 4.6 °F 24% 29.80 in 10.0 mi East 5.8 mph - N/A   Clear
1:15 AM 38.3 °F - 5.0 °F 25% 29.80 in 10.0 mi Calm Calm - N/A   Clear
1:35 AM 39.9 °F 36.7 °F 4.6 °F 23% 29.80 in 10.0 mi SSW 4.6 mph - N/A   Clear
1:55 AM 44.8 °F 39.4 °F 5.5 °F 20% 29.79 in 10.0 mi West 10.4 mph 23.0 mph N/A   Scattered Clouds
2:15 AM 44.8 °F 36.6 °F 5.7 °F 20% 29.78 in 10.0 mi West 20.7 mph 31.1 mph N/A   Scattered Clouds
2:35 AM 43.9 °F 34.3 °F 7.7 °F 23% 29.79 in 10.0 mi WSW 26.5 mph 35.7 mph N/A   Scattered Clouds
2:55 AM 42.8 °F 34.5 °F 9.5 °F 26% 29.78 in 10.0 mi WSW 18.4 mph 32.2 mph N/A   Scattered Clouds
3:15 AM 42.4 °F 36.1 °F 9.0 °F 25% 29.78 in 10.0 mi West 11.5 mph 25.3 mph N/A   Clear
3:35 AM 42.3 °F 35.1 °F 8.2 °F 25% 29.78 in 10.0 mi WSW 13.8 mph 20.7 mph N/A   Scattered Clouds
3:55 AM 42.1 °F 35.2 °F 7.7 °F 24% 29.78 in 10.0 mi WSW 12.7 mph 20.7 mph N/A   Mostly Cloudy
4:15 AM 40.8 °F 34.5 °F 8.2 °F 26% 29.78 in 10.0 mi WSW 10.4 mph 17.3 mph N/A   Overcast
4:35 AM 38.8 °F 33.2 °F 9.1 °F 29% 29.78 in 10.0 mi WSW 8.1 mph - N/A   Mostly Cloudy
4:55 AM 41.0 °F 31.4 °F 9.0 °F 27% 29.78 in 10.0 mi WSW 21.9 mph 31.1 mph N/A   Scattered Clouds
5:15 AM 39.7 °F 31.9 °F 10.2 °F 30% 29.77 in 10.0 mi West 13.8 mph 24.2 mph N/A   Scattered Clouds
5:35 AM 37.6 °F 32.3 °F 11.5 °F 34% 29.78 in 10.0 mi WSW 6.9 mph - N/A   Mostly Cloudy
5:55 AM 38.8 °F 34.6 °F 12.6 °F 34% 29.78 in 10.0 mi WSW 5.8 mph - N/A   Overcast
6:15 AM 38.5 °F 30.3 °F 16.0 °F 40% 29.79 in 10.0 mi WSW 13.8 mph 23.0 mph N/A   Overcast
6:35 AM 37.0 °F 29.8 °F 18.1 °F 46% 29.79 in 10.0 mi WSW 10.4 mph - N/A   Overcast
6:55 AM 36.5 °F 29.7 °F 19.4 °F 50% 29.80 in 10.0 mi SW 9.2 mph - N/A   Overcast
7:15 AM 36.7 °F 27.2 °F 18.1 °F 47% 29.80 in 10.0 mi SW 16.1 mph 26.5 mph N/A   Overcast
7:35 AM 34.9 °F 23.0 °F 19.2 °F 53% 29.81 in 5.0 mi SW 23.0 mph 32.2 mph N/A Snow Light Snow
7:55 AM 34.3 °F 23.5 °F 19.0 °F 54% 29.82 in 5.0 mi SW 18.4 mph 34.5 mph N/A Snow Light Snow
8:15 AM 32.2 °F 25.8 °F 22.3 °F 67% 29.83 in 10.0 mi West 6.9 mph 23.0 mph N/A   Mostly Cloudy
8:35 AM 34.3 °F 27.0 °F 21.6 °F 60% 29.84 in 10.0 mi WNW 9.2 mph 24.2 mph N/A   Scattered Clouds
8:55 AM 35.8 °F 25.7 °F 8.8 °F 33% 29.84 in 10.0 mi West 17.3 mph 34.5 mph N/A   Mostly Cloudy
9:15 AM 37.2 °F 28.3 °F 6.4 °F 28% 29.85 in 10.0 mi West 15.0 mph 28.8 mph N/A   Scattered Clouds
9:35 AM 34.3 °F 22.6 °F 21.9 °F 60% 29.86 in 10.0 mi NNW 21.9 mph 27.6 mph N/A   Clear
9:55 AM 36.5 °F 26.7 °F 18.7 °F 49% 29.87 in 10.0 mi NNW 17.3 mph 27.6 mph N/A   Clear
10:15 AM 36.5 °F 26.0 °F 17.6 °F 46% 29.88 in 10.0 mi NW 19.6 mph 25.3 mph N/A   Clear
10:35 AM 35.4 °F 24.9 °F 13.6 °F 41% 29.89 in 10.0 mi WNW 18.4 mph 24.2 mph N/A   Mostly Cloudy
10:55 AM 34.9 °F 25.7 °F 11.7 °F 38% 29.91 in 10.0 mi WNW 13.8 mph 25.3 mph N/A   Overcast
11:15 AM 34.7 °F 23.4 °F 12.0 °F 39% 29.92 in 10.0 mi NNW 20.7 mph 28.8 mph N/A   Overcast
11:35 AM 34.5 °F 23.8 °F 12.9 °F 41% 29.93 in 10.0 mi WNW 18.4 mph 24.2 mph N/A   Overcast
11:55 AM 33.4 °F 21.7 °F 18.3 °F 54% 29.94 in 7.0 mi WSW 20.7 mph - N/A   Overcast
12:15 PM 37.9 °F 29.6 °F 9.9 °F 31% 29.93 in 10.0 mi WSW 13.8 mph 23.0 mph N/A   Mostly Cloudy
12:35 PM 36.9 °F 26.8 °F 9.7 °F 33% 29.94 in 10.0 mi NNW 18.4 mph 23.0 mph N/A   Mostly Cloudy
12:55 PM 38.1 °F 27.1 °F 12.0 °F 34% 29.94 in 10.0 mi NNW 24.2 mph 31.1 mph N/A   Mostly Cloudy
1:15 PM 38.7 °F 28.3 °F 10.4 °F 31% 29.94 in 10.0 mi NNW 21.9 mph 29.9 mph N/A   Clear
1:35 PM 39.2 °F 28.3 °F 8.8 °F 29% 29.95 in 10.0 mi NNW 25.3 mph 28.8 mph N/A   Mostly Cloudy
1:55 PM 34.0 °F 21.5 °F 11.3 °F 39% 29.95 in 10.0 mi NW 24.2 mph 36.8 mph N/A   Mostly Cloudy
2:15 PM 37.6 °F 27.7 °F 9.1 °F 31% 29.95 in 10.0 mi NW 18.4 mph 29.9 mph N/A   Mostly Cloudy
2:35 PM 35.8 °F 28.3 °F 7.3 °F 31% 29.96 in 10.0 mi NW 10.4 mph - N/A   Mostly Cloudy
2:55 PM 40.5 °F 32.1 °F 8.4 °F 27% 29.95 in 10.0 mi NW 16.1 mph 21.9 mph N/A   Scattered Clouds
3:15 PM 39.2 °F 29.8 °F 5.9 °F 25% 29.96 in 10.0 mi NW 18.4 mph 24.2 mph N/A   Scattered Clouds
3:35 PM 39.6 °F 31.3 °F 3.2 °F 22% 29.97 in 10.0 mi NW 15.0 mph 24.2 mph N/A   Clear
3:55 PM 34.9 °F 23.3 °F 13.5 °F 41% 29.99 in 10.0 mi NW 21.9 mph 33.4 mph N/A   Scattered Clouds
4:15 PM 31.6 °F 17.6 °F 16.3 °F 53% 30.03 in 10.0 mi NE 27.6 mph 36.8 mph N/A   Mostly Cloudy
4:35 PM 29.7 °F 17.1 °F 17.4 °F 60% 30.03 in 7.0 mi NE 19.6 mph 32.2 mph N/A   Overcast
4:55 PM 29.3 °F 16.2 °F 15.6 °F 57% 30.05 in 10.0 mi NE 20.7 mph 33.4 mph N/A   Scattered Clouds
5:15 PM 29.1 °F 18.9 °F 16.7 °F 60% 30.09 in 10.0 mi NE 12.7 mph 24.2 mph N/A   Mostly Cloudy
5:35 PM 29.3 °F 19.6 °F 15.6 °F 57% 30.10 in 7.0 mi NNE 11.5 mph 19.6 mph N/A   Overcast
5:55 PM 28.0 °F 17.5 °F 14.7 °F 57% 30.12 in 10.0 mi NNE 12.7 mph 24.2 mph N/A   Overcast
6:15 PM 28.0 °F 18.6 °F 14.7 °F 57% 30.13 in 10.0 mi North 10.4 mph - N/A   Overcast
6:35 PM 28.2 °F 22.0 °F 15.4 °F 59% 30.14 in 10.0 mi NE 5.8 mph - N/A   Overcast
6:55 PM 27.9 °F 22.6 °F 15.6 °F 60% 30.16 in 10.0 mi NE 4.6 mph - N/A   Overcast
7:15 PM 27.3 °F 19.9 °F 15.1 °F 60% 30.17 in 10.0 mi ENE 6.9 mph - N/A   Overcast
7:35 PM 27.1 °F 21.8 °F 13.6 °F 57% 30.18 in 10.0 mi ENE 4.6 mph - N/A   Overcast
7:55 PM 26.6 °F 16.8 °F 12.2 °F 55% 30.19 in 10.0 mi NNE 10.4 mph - N/A   Overcast
8:15 PM 26.2 °F 17.1 °F 12.0 °F 55% 30.21 in 10.0 mi ENE 9.2 mph - N/A   Scattered Clouds
8:35 PM 25.0 °F 16.3 °F 11.1 °F 56% 30.22 in 10.0 mi ENE 8.1 mph - N/A   Clear
8:55 PM 24.4 °F 14.9 °F 9.3 °F 53% 30.23 in 10.0 mi NE 9.2 mph - N/A   Scattered Clouds
9:15 PM 24.3 °F 17.3 °F 13.6 °F 64% 30.24 in 10.0 mi ESE 5.8 mph - N/A   Mostly Cloudy
9:35 PM 24.3 °F 15.4 °F 13.1 °F 63% 30.25 in 10.0 mi SE 8.1 mph - N/A   Overcast
9:55 PM 23.9 °F 15.8 °F 12.7 °F 62% 30.25 in 10.0 mi SE 6.9 mph - N/A   Overcast
10:15 PM 23.9 °F 16.8 °F 12.6 °F 62% 30.26 in 10.0 mi SE 5.8 mph - N/A   Overcast
10:35 PM 24.1 °F 16.0 °F 12.4 °F 61% 30.26 in 10.0 mi ESE 6.9 mph - N/A   Overcast
10:55 PM 23.9 °F 18.0 °F 12.0 °F 61% 30.26 in 10.0 mi East 4.6 mph - N/A   Overcast
11:15 PM 23.7 °F 19.3 °F 12.0 °F 61% 30.26 in 10.0 mi ENE 3.5 mph - N/A   Overcast
11:35 PM 22.3 °F 16.1 °F 12.0 °F 65% 30.26 in 10.0 mi NE 4.6 mph - N/A   Mostly Cloudy
11:55 PM 21.2 °F 14.9 °F 11.8 °F 67% 30.26 in 10.0 mi NE 4.6 mph - N/A   Scattered Clouds